sensor_id;sensor_type;location;lat;lon;timestamp;temperature;humidity
11083;DHT22;5595;50.186;8.468;2023-07-31T00:12:42;16.60;99.90
11083;DHT22;5595;50.186;8.468;2023-07-31T00:15:09;16.60;99.90
11083;DHT22;5595;50.186;8.468;2023-07-31T00:17:37;16.50;99.90
11083;DHT22;5595;50.186;8.468;2023-07-31T00:20:05;16.40;99.90
11083;DHT22;5595;50.186;8.468;2023-07-31T00:22:42;16.50;99.90
11083;DHT22;5595;50.186;8.468;2023-07-31T00:25:09;16.50;99.90
11083;DHT22;5595;50.186;8.468;2023-07-31T00:27:36;16.40;99.90
11083;DHT22;5595;50.186;8.468;2023-07-31T00:30:06;16.40;99.90
11083;DHT22;5595;50.186;8.468;2023-07-31T00:32:33;16.40;99.90
11083;DHT22;5595;50.186;8.468;2023-07-31T00:35:00;16.30;99.90
11083;DHT22;5595;50.186;8.468;2023-07-31T00:37:27;16.30;99.90
11083;DHT22;5595;50.186;8.468;2023-07-31T00:39:54;16.30;99.90
11083;DHT22;5595;50.186;8.468;2023-07-31T00:42:31;16.40;99.90
11083;DHT22;5595;50.186;8.468;2023-07-31T02:03:53;15.90;99.90
11083;DHT22;5595;50.186;8.468;2023-07-31T02:06:20;15.90;99.90
11083;DHT22;5595;50.186;8.468;2023-07-31T02:08:51;15.90;99.90
11083;DHT22;5595;50.186;8.468;2023-07-31T02:11:18;15.90;99.90
11083;DHT22;5595;50.186;8.468;2023-07-31T02:13:44;15.90;99.90
11083;DHT22;5595;50.186;8.468;2023-07-31T02:16:11;15.90;99.90
11083;DHT22;5595;50.186;8.468;2023-07-31T02:18:38;15.90;99.90
11083;DHT22;5595;50.186;8.468;2023-07-31T02:21:06;15.90;99.90
11083;DHT22;5595;50.186;8.468;2023-07-31T02:23:33;15.90;99.90
11083;DHT22;5595;50.186;8.468;2023-07-31T02:26:00;16.00;99.90
11083;DHT22;5595;50.186;8.468;2023-07-31T02:28:26;16.00;99.90
11083;DHT22;5595;50.186;8.468;2023-07-31T02:34:23;16.00;99.90
11083;DHT22;5595;50.186;8.468;2023-07-31T02:36:52;16.00;99.90
11083;DHT22;5595;50.186;8.468;2023-07-31T02:39:19;16.10;99.90
11083;DHT22;5595;50.186;8.468;2023-07-31T02:46:58;16.10;99.90
11083;DHT22;5595;50.186;8.468;2023-07-31T02:49:28;16.00;99.90
11083;DHT22;5595;50.186;8.468;2023-07-31T02:54:32;16.10;99.90
11083;DHT22;5595;50.186;8.468;2023-07-31T02:56:59;16.20;99.90
11083;DHT22;5595;50.186;8.468;2023-07-31T02:59:29;16.20;99.90
11083;DHT22;5595;50.186;8.468;2023-07-31T03:02:01;16.10;99.90
11083;DHT22;5595;50.186;8.468;2023-07-31T03:04:33;16.20;99.90
11083;DHT22;5595;50.186;8.468;2023-07-31T03:07:07;16.20;99.90
11083;DHT22;5595;50.186;8.468;2023-07-31T03:09:38;16.20;99.90
11083;DHT22;5595;50.186;8.468;2023-07-31T03:12:05;16.20;99.90
11083;DHT22;5595;50.186;8.468;2023-07-31T03:14:32;16.20;99.90
11083;DHT22;5595;50.186;8.468;2023-07-31T03:17:01;16.30;99.90
11083;DHT22;5595;50.186;8.468;2023-07-31T03:19:32;16.30;99.90
11083;DHT22;5595;50.186;8.468;2023-07-31T03:24:41;16.20;99.90
11083;DHT22;5595;50.186;8.468;2023-07-31T03:27:10;16.10;99.90
11083;DHT22;5595;50.186;8.468;2023-07-31T03:29:37;16.20;99.90
11083;DHT22;5595;50.186;8.468;2023-07-31T03:37:18;16.10;99.90
11083;DHT22;5595;50.186;8.468;2023-07-31T03:39:49;16.20;99.90
11083;DHT22;5595;50.186;8.468;2023-07-31T03:42:16;16.10;99.90
11083;DHT22;5595;50.186;8.468;2023-07-31T03:44:43;16.20;99.90
11083;DHT22;5595;50.186;8.468;2023-07-31T03:47:10;16.20;99.90
11083;DHT22;5595;50.186;8.468;2023-07-31T03:49:45;16.20;99.90
11083;DHT22;5595;50.186;8.468;2023-07-31T03:52:12;16.20;99.90
11083;DHT22;5595;50.186;8.468;2023-07-31T03:55:11;16.30;99.90
11083;DHT22;5595;50.186;8.468;2023-07-31T03:57:41;16.30;99.90
11083;DHT22;5595;50.186;8.468;2023-07-31T04:00:13;16.30;99.90
11083;DHT22;5595;50.186;8.468;2023-07-31T04:02:44;16.40;99.90
11083;DHT22;5595;50.186;8.468;2023-07-31T04:06:00;16.40;99.90
11083;DHT22;5595;50.186;8.468;2023-07-31T04:08:27;16.40;99.90
11083;DHT22;5595;50.186;8.468;2023-07-31T04:10:55;16.40;99.90
11083;DHT22;5595;50.186;8.468;2023-07-31T04:13:22;16.50;99.90
11083;DHT22;5595;50.186;8.468;2023-07-31T04:15:49;16.50;99.90
11083;DHT22;5595;50.186;8.468;2023-07-31T04:18:16;16.50;99.90
11083;DHT22;5595;50.186;8.468;2023-07-31T04:20:43;16.50;99.90
11083;DHT22;5595;50.186;8.468;2023-07-31T04:23:10;16.50;99.90
11083;DHT22;5595;50.186;8.468;2023-07-31T04:25:37;16.60;99.90
11083;DHT22;5595;50.186;8.468;2023-07-31T04:28:05;16.60;99.90
11083;DHT22;5595;50.186;8.468;2023-07-31T04:30:33;16.60;99.90
11083;DHT22;5595;50.186;8.468;2023-07-31T04:32:59;16.60;99.90
11083;DHT22;5595;50.186;8.468;2023-07-31T04:35:26;16.70;99.90
11083;DHT22;5595;50.186;8.468;2023-07-31T04:37:53;16.70;99.90
11083;DHT22;5595;50.186;8.468;2023-07-31T04:40:21;16.70;99.90
11083;DHT22;5595;50.186;8.468;2023-07-31T04:42:48;16.70;99.90
11083;DHT22;5595;50.186;8.468;2023-07-31T04:45:16;16.70;99.90
11083;DHT22;5595;50.186;8.468;2023-07-31T04:47:43;16.70;99.90
11083;DHT22;5595;50.186;8.468;2023-07-31T04:50:10;16.80;99.90
11083;DHT22;5595;50.186;8.468;2023-07-31T04:52:37;16.70;99.90
11083;DHT22;5595;50.186;8.468;2023-07-31T04:55:04;16.70;99.90
11083;DHT22;5595;50.186;8.468;2023-07-31T04:57:31;16.80;99.90
11083;DHT22;5595;50.186;8.468;2023-07-31T04:59:57;16.80;99.90
11083;DHT22;5595;50.186;8.468;2023-07-31T05:02:26;16.80;99.90
11083;DHT22;5595;50.186;8.468;2023-07-31T05:04:52;16.80;99.90
11083;DHT22;5595;50.186;8.468;2023-07-31T05:07:19;16.80;99.90
11083;DHT22;5595;50.186;8.468;2023-07-31T05:09:46;16.80;99.90
11083;DHT22;5595;50.186;8.468;2023-07-31T05:12:13;16.80;99.90
11083;DHT22;5595;50.186;8.468;2023-07-31T05:14:39;16.90;99.90
11083;DHT22;5595;50.186;8.468;2023-07-31T05:17:06;16.90;99.90
11083;DHT22;5595;50.186;8.468;2023-07-31T05:19:34;16.90;99.90
11083;DHT22;5595;50.186;8.468;2023-07-31T05:22:01;17.00;99.90
11083;DHT22;5595;50.186;8.468;2023-07-31T05:24:28;16.90;99.90
11083;DHT22;5595;50.186;8.468;2023-07-31T05:26:55;17.00;99.90
11083;DHT22;5595;50.186;8.468;2023-07-31T05:29:22;16.90;99.90
11083;DHT22;5595;50.186;8.468;2023-07-31T05:31:48;16.90;99.90
11083;DHT22;5595;50.186;8.468;2023-07-31T05:34:15;16.90;99.90
11083;DHT22;5595;50.186;8.468;2023-07-31T05:36:43;16.80;99.90
11083;DHT22;5595;50.186;8.468;2023-07-31T05:39:10;16.90;99.90
11083;DHT22;5595;50.186;8.468;2023-07-31T05:41:37;16.90;99.90
11083;DHT22;5595;50.186;8.468;2023-07-31T05:44:04;16.90;99.90
11083;DHT22;5595;50.186;8.468;2023-07-31T05:46:31;16.90;99.90
11083;DHT22;5595;50.186;8.468;2023-07-31T05:48:58;16.90;99.90
11083;DHT22;5595;50.186;8.468;2023-07-31T05:51:26;17.00;99.90
11083;DHT22;5595;50.186;8.468;2023-07-31T05:53:54;17.00;99.90
11083;DHT22;5595;50.186;8.468;2023-07-31T05:56:21;17.10;99.90
11083;DHT22;5595;50.186;8.468;2023-07-31T05:58:48;17.10;99.90
11083;DHT22;5595;50.186;8.468;2023-07-31T06:01:16;17.20;99.90
11083;DHT22;5595;50.186;8.468;2023-07-31T06:03:43;17.10;99.90
11083;DHT22;5595;50.186;8.468;2023-07-31T06:06:11;17.10;99.90
11083;DHT22;5595;50.186;8.468;2023-07-31T06:08:39;17.10;99.90
11083;DHT22;5595;50.186;8.468;2023-07-31T06:11:07;17.10;99.90
11083;DHT22;5595;50.186;8.468;2023-07-31T06:13:36;17.10;99.90
11083;DHT22;5595;50.186;8.468;2023-07-31T06:16:04;17.10;99.90
11083;DHT22;5595;50.186;8.468;2023-07-31T06:18:31;17.10;99.90
11083;DHT22;5595;50.186;8.468;2023-07-31T06:20:58;17.20;99.90
11083;DHT22;5595;50.186;8.468;2023-07-31T06:23:25;17.30;99.90
11083;DHT22;5595;50.186;8.468;2023-07-31T06:25:52;17.40;99.90
11083;DHT22;5595;50.186;8.468;2023-07-31T06:28:20;17.40;99.90
11083;DHT22;5595;50.186;8.468;2023-07-31T06:30:47;17.50;99.90
11083;DHT22;5595;50.186;8.468;2023-07-31T06:33:13;17.50;99.90
11083;DHT22;5595;50.186;8.468;2023-07-31T06:35:40;17.40;99.90
11083;DHT22;5595;50.186;8.468;2023-07-31T06:38:07;17.50;99.90
11083;DHT22;5595;50.186;8.468;2023-07-31T06:40:34;17.40;99.90
11083;DHT22;5595;50.186;8.468;2023-07-31T06:43:01;17.40;99.90
11083;DHT22;5595;50.186;8.468;2023-07-31T06:45:34;17.40;99.90
11083;DHT22;5595;50.186;8.468;2023-07-31T06:48:01;17.50;99.90
11083;DHT22;5595;50.186;8.468;2023-07-31T06:50:29;17.50;99.90
11083;DHT22;5595;50.186;8.468;2023-07-31T06:52:56;17.60;99.90
11083;DHT22;5595;50.186;8.468;2023-07-31T06:55:23;17.70;99.90
11083;DHT22;5595;50.186;8.468;2023-07-31T06:57:51;17.70;99.90
11083;DHT22;5595;50.186;8.468;2023-07-31T07:00:19;17.60;99.90
11083;DHT22;5595;50.186;8.468;2023-07-31T07:02:48;17.60;99.90
11083;DHT22;5595;50.186;8.468;2023-07-31T07:05:16;17.60;99.90
11083;DHT22;5595;50.186;8.468;2023-07-31T07:07:43;17.60;99.90
11083;DHT22;5595;50.186;8.468;2023-07-31T07:10:10;17.70;99.90
11083;DHT22;5595;50.186;8.468;2023-07-31T07:12:37;17.70;99.90
11083;DHT22;5595;50.186;8.468;2023-07-31T07:15:05;17.80;99.90
11083;DHT22;5595;50.186;8.468;2023-07-31T07:17:32;17.90;99.90
11083;DHT22;5595;50.186;8.468;2023-07-31T07:20:00;18.10;99.90
11083;DHT22;5595;50.186;8.468;2023-07-31T07:22:28;18.30;99.90
11083;DHT22;5595;50.186;8.468;2023-07-31T07:24:55;18.50;99.90
11083;DHT22;5595;50.186;8.468;2023-07-31T07:27:22;18.60;99.90
11083;DHT22;5595;50.186;8.468;2023-07-31T07:29:50;18.70;99.90
11083;DHT22;5595;50.186;8.468;2023-07-31T07:32:17;18.80;99.90
11083;DHT22;5595;50.186;8.468;2023-07-31T07:34:47;18.90;99.90
11083;DHT22;5595;50.186;8.468;2023-07-31T07:37:16;19.00;99.90
11083;DHT22;5595;50.186;8.468;2023-07-31T07:39:43;19.20;99.90
11083;DHT22;5595;50.186;8.468;2023-07-31T07:42:10;19.40;99.90
11083;DHT22;5595;50.186;8.468;2023-07-31T07:44:37;19.40;99.90
11083;DHT22;5595;50.186;8.468;2023-07-31T07:47:04;19.40;99.90
11083;DHT22;5595;50.186;8.468;2023-07-31T07:49:32;19.40;99.90
11083;DHT22;5595;50.186;8.468;2023-07-31T07:51:59;19.40;99.90
11083;DHT22;5595;50.186;8.468;2023-07-31T07:54:27;19.20;99.90
11083;DHT22;5595;50.186;8.468;2023-07-31T07:56:54;19.20;99.90
11083;DHT22;5595;50.186;8.468;2023-07-31T07:59:23;19.10;99.90
11083;DHT22;5595;50.186;8.468;2023-07-31T08:01:50;19.00;99.90
11083;DHT22;5595;50.186;8.468;2023-07-31T08:04:17;19.00;99.90
11083;DHT22;5595;50.186;8.468;2023-07-31T08:06:44;19.10;99.90
11083;DHT22;5595;50.186;8.468;2023-07-31T08:09:10;19.30;99.90
11083;DHT22;5595;50.186;8.468;2023-07-31T08:11:39;19.40;99.90
11083;DHT22;5595;50.186;8.468;2023-07-31T08:14:05;19.50;99.90
11083;DHT22;5595;50.186;8.468;2023-07-31T08:16:32;19.60;99.90
11083;DHT22;5595;50.186;8.468;2023-07-31T08:18:59;19.80;99.90
11083;DHT22;5595;50.186;8.468;2023-07-31T08:21:26;19.90;99.90
11083;DHT22;5595;50.186;8.468;2023-07-31T08:23:52;20.00;99.90
11083;DHT22;5595;50.186;8.468;2023-07-31T08:26:19;20.10;99.90
11083;DHT22;5595;50.186;8.468;2023-07-31T08:28:47;20.10;99.90
11083;DHT22;5595;50.186;8.468;2023-07-31T08:31:14;20.10;99.90
11083;DHT22;5595;50.186;8.468;2023-07-31T08:33:41;20.20;99.90
11083;DHT22;5595;50.186;8.468;2023-07-31T08:36:08;20.10;99.90
11083;DHT22;5595;50.186;8.468;2023-07-31T08:38:35;20.10;99.90
11083;DHT22;5595;50.186;8.468;2023-07-31T08:41:03;20.20;99.90
11083;DHT22;5595;50.186;8.468;2023-07-31T08:43:30;20.20;99.90
11083;DHT22;5595;50.186;8.468;2023-07-31T08:45:59;20.10;99.90
11083;DHT22;5595;50.186;8.468;2023-07-31T08:48:26;20.10;99.90
11083;DHT22;5595;50.186;8.468;2023-07-31T08:50:54;20.20;99.90
11083;DHT22;5595;50.186;8.468;2023-07-31T08:53:21;20.40;99.90
11083;DHT22;5595;50.186;8.468;2023-07-31T08:55:49;20.60;99.90
11083;DHT22;5595;50.186;8.468;2023-07-31T08:58:17;20.80;99.90
11083;DHT22;5595;50.186;8.468;2023-07-31T09:00:46;21.00;99.90
11083;DHT22;5595;50.186;8.468;2023-07-31T09:03:15;21.20;99.90
11083;DHT22;5595;50.186;8.468;2023-07-31T09:05:44;21.10;99.90
11083;DHT22;5595;50.186;8.468;2023-07-31T09:08:12;20.90;99.90
11083;DHT22;5595;50.186;8.468;2023-07-31T09:10:43;20.90;99.90
11083;DHT22;5595;50.186;8.468;2023-07-31T09:13:11;20.80;99.90
11083;DHT22;5595;50.186;8.468;2023-07-31T09:15:39;20.60;99.90
11083;DHT22;5595;50.186;8.468;2023-07-31T09:18:09;20.60;99.90
11083;DHT22;5595;50.186;8.468;2023-07-31T09:20:38;20.60;99.90
11083;DHT22;5595;50.186;8.468;2023-07-31T09:23:06;20.60;99.90
11083;DHT22;5595;50.186;8.468;2023-07-31T09:25:35;20.60;99.90
11083;DHT22;5595;50.186;8.468;2023-07-31T09:28:03;20.70;99.90
11083;DHT22;5595;50.186;8.468;2023-07-31T09:30:30;20.70;99.90
11083;DHT22;5595;50.186;8.468;2023-07-31T09:33:02;20.70;99.90
11083;DHT22;5595;50.186;8.468;2023-07-31T09:35:30;20.50;99.90
11083;DHT22;5595;50.186;8.468;2023-07-31T09:37:59;20.50;99.90
11083;DHT22;5595;50.186;8.468;2023-07-31T09:40:31;20.50;99.90
11083;DHT22;5595;50.186;8.468;2023-07-31T09:42:59;20.60;99.90
11083;DHT22;5595;50.186;8.468;2023-07-31T09:45:27;20.60;99.90
11083;DHT22;5595;50.186;8.468;2023-07-31T09:47:54;20.60;99.90
11083;DHT22;5595;50.186;8.468;2023-07-31T09:50:22;20.70;99.90
11083;DHT22;5595;50.186;8.468;2023-07-31T09:52:49;20.80;99.90
11083;DHT22;5595;50.186;8.468;2023-07-31T09:55:19;20.80;99.90
11083;DHT22;5595;50.186;8.468;2023-07-31T09:57:47;21.00;99.90
11083;DHT22;5595;50.186;8.468;2023-07-31T10:00:16;21.30;99.90
11083;DHT22;5595;50.186;8.468;2023-07-31T10:02:45;21.70;99.90
11083;DHT22;5595;50.186;8.468;2023-07-31T10:05:13;22.00;99.90
11083;DHT22;5595;50.186;8.468;2023-07-31T10:07:43;22.00;99.90
11083;DHT22;5595;50.186;8.468;2023-07-31T10:10:14;22.20;99.90
11083;DHT22;5595;50.186;8.468;2023-07-31T10:12:44;22.20;99.90
11083;DHT22;5595;50.186;8.468;2023-07-31T10:15:12;22.30;99.90
11083;DHT22;5595;50.186;8.468;2023-07-31T10:17:39;22.30;99.90
11083;DHT22;5595;50.186;8.468;2023-07-31T10:20:07;22.40;99.90
11083;DHT22;5595;50.186;8.468;2023-07-31T10:22:34;22.30;99.90
11083;DHT22;5595;50.186;8.468;2023-07-31T10:25:01;22.30;99.90
11083;DHT22;5595;50.186;8.468;2023-07-31T10:27:28;22.30;99.90
11083;DHT22;5595;50.186;8.468;2023-07-31T10:29:57;22.20;99.90
11083;DHT22;5595;50.186;8.468;2023-07-31T10:32:25;22.10;99.90
11083;DHT22;5595;50.186;8.468;2023-07-31T10:34:53;22.10;99.90
11083;DHT22;5595;50.186;8.468;2023-07-31T10:37:24;22.00;99.90
11083;DHT22;5595;50.186;8.468;2023-07-31T10:39:59;22.00;99.90
11083;DHT22;5595;50.186;8.468;2023-07-31T10:42:31;21.90;99.90
11083;DHT22;5595;50.186;8.468;2023-07-31T10:45:03;21.80;99.90
11083;DHT22;5595;50.186;8.468;2023-07-31T10:47:30;21.70;99.90
11083;DHT22;5595;50.186;8.468;2023-07-31T10:50:12;21.60;99.90
11083;DHT22;5595;50.186;8.468;2023-07-31T10:52:39;21.60;99.90
11083;DHT22;5595;50.186;8.468;2023-07-31T10:55:22;21.70;99.90
11083;DHT22;5595;50.186;8.468;2023-07-31T10:57:48;21.80;99.90
11083;DHT22;5595;50.186;8.468;2023-07-31T11:00:22;22.00;99.90
11083;DHT22;5595;50.186;8.468;2023-07-31T11:03:00;22.30;99.90
11083;DHT22;5595;50.186;8.468;2023-07-31T11:05:48;22.50;99.90
11083;DHT22;5595;50.186;8.468;2023-07-31T11:08:19;22.60;99.90
11083;DHT22;5595;50.186;8.468;2023-07-31T11:10:49;22.50;99.90
11083;DHT22;5595;50.186;8.468;2023-07-31T11:13:16;22.40;99.90
11083;DHT22;5595;50.186;8.468;2023-07-31T11:15:44;22.40;99.90
11083;DHT22;5595;50.186;8.468;2023-07-31T11:18:11;22.20;99.90
11083;DHT22;5595;50.186;8.468;2023-07-31T11:20:38;22.20;99.90
11083;DHT22;5595;50.186;8.468;2023-07-31T11:23:08;22.20;99.90
11083;DHT22;5595;50.186;8.468;2023-07-31T11:25:36;22.20;99.90
11083;DHT22;5595;50.186;8.468;2023-07-31T11:28:06;22.10;99.90
11083;DHT22;5595;50.186;8.468;2023-07-31T11:30:33;22.00;99.90
11083;DHT22;5595;50.186;8.468;2023-07-31T11:33:06;22.00;99.90
11083;DHT22;5595;50.186;8.468;2023-07-31T11:35:34;22.00;99.90
11083;DHT22;5595;50.186;8.468;2023-07-31T11:38:02;21.90;99.90
11083;DHT22;5595;50.186;8.468;2023-07-31T11:40:29;21.90;99.90
11083;DHT22;5595;50.186;8.468;2023-07-31T11:42:57;22.00;99.90
11083;DHT22;5595;50.186;8.468;2023-07-31T11:45:26;22.00;99.90
11083;DHT22;5595;50.186;8.468;2023-07-31T11:47:55;21.90;99.90
11083;DHT22;5595;50.186;8.468;2023-07-31T11:50:24;22.00;99.90
11083;DHT22;5595;50.186;8.468;2023-07-31T11:52:54;22.10;99.90
11083;DHT22;5595;50.186;8.468;2023-07-31T11:55:22;22.20;99.90
11083;DHT22;5595;50.186;8.468;2023-07-31T11:57:50;22.10;99.90
11083;DHT22;5595;50.186;8.468;2023-07-31T12:00:17;22.00;99.90
11083;DHT22;5595;50.186;8.468;2023-07-31T12:02:44;22.00;99.90
11083;DHT22;5595;50.186;8.468;2023-07-31T12:05:12;22.00;99.90
11083;DHT22;5595;50.186;8.468;2023-07-31T12:07:45;22.00;99.90
11083;DHT22;5595;50.186;8.468;2023-07-31T12:10:23;22.10;99.90
11083;DHT22;5595;50.186;8.468;2023-07-31T12:12:56;22.00;99.90
11083;DHT22;5595;50.186;8.468;2023-07-31T12:15:29;22.00;99.90
11083;DHT22;5595;50.186;8.468;2023-07-31T12:17:57;22.00;99.90
11083;DHT22;5595;50.186;8.468;2023-07-31T12:20:24;21.90;99.90
11083;DHT22;5595;50.186;8.468;2023-07-31T12:22:52;22.00;99.90
11083;DHT22;5595;50.186;8.468;2023-07-31T12:25:22;22.10;99.90
11083;DHT22;5595;50.186;8.468;2023-07-31T12:27:50;22.00;99.90
11083;DHT22;5595;50.186;8.468;2023-07-31T12:30:27;21.90;99.90
11083;DHT22;5595;50.186;8.468;2023-07-31T12:32:54;21.90;99.90
11083;DHT22;5595;50.186;8.468;2023-07-31T12:35:22;21.90;99.90
11083;DHT22;5595;50.186;8.468;2023-07-31T12:37:49;22.10;99.90
11083;DHT22;5595;50.186;8.468;2023-07-31T12:40:17;22.50;99.90
11083;DHT22;5595;50.186;8.468;2023-07-31T12:42:44;22.70;99.90
11083;DHT22;5595;50.186;8.468;2023-07-31T12:45:11;23.00;99.90
11083;DHT22;5595;50.186;8.468;2023-07-31T12:47:37;23.30;99.90
11083;DHT22;5595;50.186;8.468;2023-07-31T12:50:05;23.50;99.90
11083;DHT22;5595;50.186;8.468;2023-07-31T12:52:32;23.80;99.90
11083;DHT22;5595;50.186;8.468;2023-07-31T12:54:59;23.90;99.90
11083;DHT22;5595;50.186;8.468;2023-07-31T12:57:27;24.30;99.90
11083;DHT22;5595;50.186;8.468;2023-07-31T12:59:54;24.40;99.90
11083;DHT22;5595;50.186;8.468;2023-07-31T13:02:20;24.60;99.90
11083;DHT22;5595;50.186;8.468;2023-07-31T13:04:49;24.70;99.90
11083;DHT22;5595;50.186;8.468;2023-07-31T13:07:16;24.50;99.90
11083;DHT22;5595;50.186;8.468;2023-07-31T13:09:43;24.40;99.90
11083;DHT22;5595;50.186;8.468;2023-07-31T13:12:09;24.30;99.90
11083;DHT22;5595;50.186;8.468;2023-07-31T13:14:38;24.00;99.90
11083;DHT22;5595;50.186;8.468;2023-07-31T13:17:07;23.90;99.90
11083;DHT22;5595;50.186;8.468;2023-07-31T13:19:34;23.70;99.90
11083;DHT22;5595;50.186;8.468;2023-07-31T13:22:01;23.70;99.90
11083;DHT22;5595;50.186;8.468;2023-07-31T13:24:28;23.80;99.90
11083;DHT22;5595;50.186;8.468;2023-07-31T13:26:55;23.90;99.90
11083;DHT22;5595;50.186;8.468;2023-07-31T13:29:22;23.90;99.90
11083;DHT22;5595;50.186;8.468;2023-07-31T13:31:52;23.70;99.90
11083;DHT22;5595;50.186;8.468;2023-07-31T13:34:19;23.60;99.90
11083;DHT22;5595;50.186;8.468;2023-07-31T13:36:46;23.50;99.90
11083;DHT22;5595;50.186;8.468;2023-07-31T13:39:13;23.30;99.90
11083;DHT22;5595;50.186;8.468;2023-07-31T13:41:40;23.00;99.90
11083;DHT22;5595;50.186;8.468;2023-07-31T13:44:07;23.00;99.90
11083;DHT22;5595;50.186;8.468;2023-07-31T13:46:33;22.80;99.90
11083;DHT22;5595;50.186;8.468;2023-07-31T13:49:01;22.60;99.90
11083;DHT22;5595;50.186;8.468;2023-07-31T13:51:28;22.40;99.90
11083;DHT22;5595;50.186;8.468;2023-07-31T13:53:55;22.20;99.90
11083;DHT22;5595;50.186;8.468;2023-07-31T13:56:22;22.00;99.90
11083;DHT22;5595;50.186;8.468;2023-07-31T13:58:49;22.00;99.90
11083;DHT22;5595;50.186;8.468;2023-07-31T14:01:16;21.80;99.90
11083;DHT22;5595;50.186;8.468;2023-07-31T14:03:42;21.70;99.90
11083;DHT22;5595;50.186;8.468;2023-07-31T14:06:10;21.50;99.90
11083;DHT22;5595;50.186;8.468;2023-07-31T14:08:37;21.40;99.90
11083;DHT22;5595;50.186;8.468;2023-07-31T14:11:04;21.40;99.90
11083;DHT22;5595;50.186;8.468;2023-07-31T14:13:31;21.40;99.90
11083;DHT22;5595;50.186;8.468;2023-07-31T14:15:58;21.30;99.90
11083;DHT22;5595;50.186;8.468;2023-07-31T14:18:27;21.30;99.90
11083;DHT22;5595;50.186;8.468;2023-07-31T14:20:53;21.30;99.90
11083;DHT22;5595;50.186;8.468;2023-07-31T14:23:20;21.50;99.90
11083;DHT22;5595;50.186;8.468;2023-07-31T14:25:47;21.60;99.90
11083;DHT22;5595;50.186;8.468;2023-07-31T14:28:14;21.70;99.90
11083;DHT22;5595;50.186;8.468;2023-07-31T14:30:41;21.80;99.90
11083;DHT22;5595;50.186;8.468;2023-07-31T14:33:08;21.80;99.90
11083;DHT22;5595;50.186;8.468;2023-07-31T14:35:34;21.90;99.90
11083;DHT22;5595;50.186;8.468;2023-07-31T14:38:01;22.10;99.90
11083;DHT22;5595;50.186;8.468;2023-07-31T14:40:30;22.20;99.90
11083;DHT22;5595;50.186;8.468;2023-07-31T14:42:56;22.20;99.90
11083;DHT22;5595;50.186;8.468;2023-07-31T14:45:23;22.10;99.90
11083;DHT22;5595;50.186;8.468;2023-07-31T14:47:50;22.10;99.90
11083;DHT22;5595;50.186;8.468;2023-07-31T14:50:17;22.00;99.90
11083;DHT22;5595;50.186;8.468;2023-07-31T14:52:44;21.90;99.90
11083;DHT22;5595;50.186;8.468;2023-07-31T14:55:11;21.90;99.90
11083;DHT22;5595;50.186;8.468;2023-07-31T14:57:39;22.00;99.90
11083;DHT22;5595;50.186;8.468;2023-07-31T15:00:07;22.00;99.90
11083;DHT22;5595;50.186;8.468;2023-07-31T15:02:36;22.10;99.90
11083;DHT22;5595;50.186;8.468;2023-07-31T15:05:03;22.10;99.90
11083;DHT22;5595;50.186;8.468;2023-07-31T15:07:31;22.00;99.90
11083;DHT22;5595;50.186;8.468;2023-07-31T15:10:08;21.90;99.90
11083;DHT22;5595;50.186;8.468;2023-07-31T15:12:34;21.80;99.90
11083;DHT22;5595;50.186;8.468;2023-07-31T15:15:05;21.70;99.90
11083;DHT22;5595;50.186;8.468;2023-07-31T15:17:32;21.50;99.90
11083;DHT22;5595;50.186;8.468;2023-07-31T15:20:00;21.40;99.90
11083;DHT22;5595;50.186;8.468;2023-07-31T15:22:27;21.30;99.90
11083;DHT22;5595;50.186;8.468;2023-07-31T15:24:53;21.20;99.90
11083;DHT22;5595;50.186;8.468;2023-07-31T15:27:20;21.10;99.90
11083;DHT22;5595;50.186;8.468;2023-07-31T15:29:47;21.10;99.90
11083;DHT22;5595;50.186;8.468;2023-07-31T15:32:17;21.20;99.90
11083;DHT22;5595;50.186;8.468;2023-07-31T15:34:44;21.30;99.90
11083;DHT22;5595;50.186;8.468;2023-07-31T15:37:11;21.20;99.90
11083;DHT22;5595;50.186;8.468;2023-07-31T15:39:38;21.20;99.90
11083;DHT22;5595;50.186;8.468;2023-07-31T15:42:05;21.10;99.90
11083;DHT22;5595;50.186;8.468;2023-07-31T15:44:34;20.90;99.90
11083;DHT22;5595;50.186;8.468;2023-07-31T15:47:01;20.80;99.90
11083;DHT22;5595;50.186;8.468;2023-07-31T15:49:29;20.70;99.90
11083;DHT22;5595;50.186;8.468;2023-07-31T15:51:59;20.70;99.90
11083;DHT22;5595;50.186;8.468;2023-07-31T15:54:26;20.50;99.90
11083;DHT22;5595;50.186;8.468;2023-07-31T15:56:52;20.40;99.90
11083;DHT22;5595;50.186;8.468;2023-07-31T15:59:19;20.20;99.90
11083;DHT22;5595;50.186;8.468;2023-07-31T16:01:46;20.10;99.90
11083;DHT22;5595;50.186;8.468;2023-07-31T16:04:13;20.10;99.90
11083;DHT22;5595;50.186;8.468;2023-07-31T16:06:41;20.00;99.90
11083;DHT22;5595;50.186;8.468;2023-07-31T16:09:08;20.00;99.90
11083;DHT22;5595;50.186;8.468;2023-07-31T16:11:35;20.10;99.90
11083;DHT22;5595;50.186;8.468;2023-07-31T16:14:01;20.10;99.90
11083;DHT22;5595;50.186;8.468;2023-07-31T16:16:28;20.20;99.90
11083;DHT22;5595;50.186;8.468;2023-07-31T16:18:55;20.10;99.90
11083;DHT22;5595;50.186;8.468;2023-07-31T16:21:22;20.00;99.90
11083;DHT22;5595;50.186;8.468;2023-07-31T16:23:50;20.00;99.90
11083;DHT22;5595;50.186;8.468;2023-07-31T16:26:17;20.00;99.90
11083;DHT22;5595;50.186;8.468;2023-07-31T16:28:44;20.00;99.90
11083;DHT22;5595;50.186;8.468;2023-07-31T16:31:10;20.00;99.90
11083;DHT22;5595;50.186;8.468;2023-07-31T16:33:37;20.00;99.90
11083;DHT22;5595;50.186;8.468;2023-07-31T16:36:04;20.10;99.90
11083;DHT22;5595;50.186;8.468;2023-07-31T16:38:31;20.10;99.90
11083;DHT22;5595;50.186;8.468;2023-07-31T16:40:59;20.20;99.90
11083;DHT22;5595;50.186;8.468;2023-07-31T16:43:26;20.20;99.90
11083;DHT22;5595;50.186;8.468;2023-07-31T16:45:54;20.30;99.90
11083;DHT22;5595;50.186;8.468;2023-07-31T16:48:21;20.40;99.90
11083;DHT22;5595;50.186;8.468;2023-07-31T16:50:48;20.40;99.90
11083;DHT22;5595;50.186;8.468;2023-07-31T16:53:14;20.40;99.90
11083;DHT22;5595;50.186;8.468;2023-07-31T16:55:41;20.40;99.90
11083;DHT22;5595;50.186;8.468;2023-07-31T16:58:09;20.40;99.90
11083;DHT22;5595;50.186;8.468;2023-07-31T17:00:36;20.20;99.90
11083;DHT22;5595;50.186;8.468;2023-07-31T17:03:03;20.10;99.90
11083;DHT22;5595;50.186;8.468;2023-07-31T17:05:31;20.00;99.90
11083;DHT22;5595;50.186;8.468;2023-07-31T17:07:57;19.90;99.90
11083;DHT22;5595;50.186;8.468;2023-07-31T17:10:26;19.90;99.90
11083;DHT22;5595;50.186;8.468;2023-07-31T17:12:53;19.90;99.90
11083;DHT22;5595;50.186;8.468;2023-07-31T17:15:21;19.80;99.90
11083;DHT22;5595;50.186;8.468;2023-07-31T17:17:52;19.80;99.90
11083;DHT22;5595;50.186;8.468;2023-07-31T17:20:19;19.60;99.90
11083;DHT22;5595;50.186;8.468;2023-07-31T17:22:46;19.50;99.90
11083;DHT22;5595;50.186;8.468;2023-07-31T17:25:13;19.30;99.90
11083;DHT22;5595;50.186;8.468;2023-07-31T17:27:40;19.20;99.90
11083;DHT22;5595;50.186;8.468;2023-07-31T17:30:08;19.10;99.90
11083;DHT22;5595;50.186;8.468;2023-07-31T17:32:36;19.00;99.90
11083;DHT22;5595;50.186;8.468;2023-07-31T17:35:03;19.00;99.90
11083;DHT22;5595;50.186;8.468;2023-07-31T17:37:30;18.90;99.90
11083;DHT22;5595;50.186;8.468;2023-07-31T17:39:57;18.90;99.90